NCAR-RAP Real-Time Weather Data

Output produced by METARs form (16 August 2018  19:23 UTC)
found at http://weather.rap.ucar.edu/surface/
 
Conditions at: KTPA observed 16 August 2018  18:53 UTC
Temperature: 30.6°C (87°F)
Dewpoint: 22.8°C (73°F) [RH = 63%]
Pressure (altimeter): 30.15 inches Hg (1021.1 mb)
[Sea-level pressure: 1020.8 mb]
Winds: from the SW (230 degrees) at 10 MPH (9 knots; 4.7 m/s)
Visibility: 10 or more miles (16+ km)
Ceiling: at least 12,000 feet AGL
Clouds: scattered clouds at 5000 feet AGL
Present Weather: no significant weather observed at this time
KTPA 161853Z 23009KT 10SM SCT050 31/23 A3015 RMK AO2 SLP208 CB DSNT N AND W T03060228

Conditions at: KTPA observed 16 August 2018  17:53 UTC
Temperature: 28.3°C (83°F)
Dewpoint: 23.3°C (74°F) [RH = 74%]
Pressure (altimeter): 30.16 inches Hg (1021.4 mb)
[Sea-level pressure: 1021.2 mb]
Winds: from the SSW (210 degrees) at 6 MPH (5 knots; 2.6 m/s)
Visibility: 10 or more miles (16+ km)
Ceiling: at least 12,000 feet AGL
Clouds: scattered clouds at 4500 feet AGL
Present Weather: no significant weather observed at this time
KTPA 161753Z 21005KT 10SM SCT045TCU 28/23 A3016 RMK AO2 SLP212 TCU ALQDS SHRA DSNT W T02830233 10306 20233 58005

Conditions at: KTPA observed 16 August 2018  16:53 UTC
Temperature: 30.0°C (86°F)
Dewpoint: 22.2°C (72°F) [RH = 63%]
Pressure (altimeter): 30.17 inches Hg (1021.8 mb)
[Sea-level pressure: 1021.5 mb]
Winds: from the ESE (110 degrees) at 6 MPH (5 knots; 2.6 m/s)
Visibility: 10 or more miles (16+ km)
Ceiling: at least 12,000 feet AGL
Clouds: scattered clouds at 3500 feet AGL
Present Weather: no significant weather observed at this time
KTPA 161653Z 11005KT 10SM SCT035TCU 30/22 A3017 RMK AO2 SLP215 TCU N AND BLDG ALQDS T03000222

Conditions at: KTPA observed 16 August 2018  15:53 UTC
Temperature: 28.9°C (84°F)
Dewpoint: 22.8°C (73°F) [RH = 70%]
Pressure (altimeter): 30.17 inches Hg (1021.8 mb)
[Sea-level pressure: 1021.7 mb]
Winds: from the SSE (150 degrees) at 9 MPH (8 knots; 4.2 m/s)
Visibility: 10 or more miles (16+ km)
Ceiling: at least 12,000 feet AGL
Clouds: scattered clouds at 2500 feet AGL
scattered clouds at 25000 feet AGL
Present Weather: no significant weather observed at this time
KTPA 161553Z 15008KT 120V180 10SM SCT025 SCT250 29/23 A3017 RMK AO2 SLP217 T02890228

Conditions at: KTPA observed 16 August 2018  14:53 UTC
Temperature: 28.3°C (83°F)
Dewpoint: 24.4°C (76°F) [RH = 79%]
Pressure (altimeter): 30.17 inches Hg (1021.8 mb)
[Sea-level pressure: 1021.7 mb]
Winds: from the SSE (150 degrees) at 9 MPH (8 knots; 4.2 m/s)
Visibility: 10 or more miles (16+ km)
Ceiling: at least 12,000 feet AGL
Clouds: scattered clouds at 2300 feet AGL
scattered clouds at 25000 feet AGL
Present Weather: no significant weather observed at this time
KTPA 161453Z 15008KT 110V170 10SM SCT023 SCT250 28/24 A3017 RMK AO2 SLP217 T02830244 53010

Conditions at: KTPA observed 16 August 2018  13:53 UTC
Temperature: 26.7°C (80°F)
Dewpoint: 23.9°C (75°F) [RH = 85%]
Pressure (altimeter): 30.16 inches Hg (1021.4 mb)
[Sea-level pressure: 1021.2 mb]
Winds: from the ESE (110 degrees) at 7 MPH (6 knots; 3.1 m/s)
Visibility: 10 or more miles (16+ km)
Ceiling: at least 12,000 feet AGL
Clouds: few clouds at 1500 feet AGL
few clouds at 25000 feet AGL
Present Weather: no significant weather observed at this time
KTPA 161353Z 11006KT 10SM FEW015 FEW250 27/24 A3016 RMK AO2 SLP212 T02670239

Conditions at: KTPA observed 16 August 2018  12:53 UTC
Temperature: 25.0°C (77°F)
Dewpoint: 23.3°C (74°F) [RH = 90%]
Pressure (altimeter): 30.15 inches Hg (1021.1 mb)
[Sea-level pressure: 1021.0 mb]
Winds: from the ESE (120 degrees) at 6 MPH (5 knots; 2.6 m/s)
Visibility: 10 or more miles (16+ km)
Ceiling: at least 12,000 feet AGL
Clouds: few clouds at 25000 feet AGL
Present Weather: no significant weather observed at this time
KTPA 161253Z 12005KT 10SM FEW250 25/23 A3015 RMK AO2 SLP210 T02500233

Conditions at: KTPA observed 16 August 2018  11:53 UTC
Temperature: 23.3°C (74°F)
Dewpoint: 22.2°C (72°F) [RH = 94%]
Pressure (altimeter): 30.14 inches Hg (1020.7 mb)
[Sea-level pressure: 1020.7 mb]
Winds: variable direction winds at 3 MPH (3 knots; 1.6 m/s)
Visibility: 10 or more miles (16+ km)
Ceiling: at least 12,000 feet AGL
Clouds: few clouds at 9000 feet AGL
few clouds at 25000 feet AGL
Present Weather: no significant weather observed at this time
KTPA 161153Z VRB03KT 10SM FEW090 FEW250 23/22 A3014 RMK AO2 SLP207 T02330222 10233 20222 53017

Conditions at: KTPA observed 16 August 2018  10:53 UTC
Temperature: 22.8°C (73°F)
Dewpoint: 21.7°C (71°F) [RH = 94%]
Pressure (altimeter): 30.12 inches Hg (1020.1 mb)
[Sea-level pressure: 1019.9 mb]
Winds: from the ESE (110 degrees) at 3 MPH (3 knots; 1.6 m/s)
Visibility: 10 or more miles (16+ km)
Ceiling: 18000 feet AGL
Clouds: few clouds at 9000 feet AGL
broken clouds at 18000 feet AGL
broken clouds at 24000 feet AGL
Present Weather: no significant weather observed at this time
KTPA 161053Z 11003KT 10SM FEW090 BKN180 BKN240 23/22 A3012 RMK AO2 SLP199 T02280217

Conditions at: KTPA observed 16 August 2018  09:53 UTC
Temperature: 22.8°C (73°F)
Dewpoint: 21.7°C (71°F) [RH = 94%]
Pressure (altimeter): 30.10 inches Hg (1019.4 mb)
[Sea-level pressure: 1019.4 mb]
Winds: from the ESE (110 degrees) at 5 MPH (4 knots; 2.1 m/s)
Visibility: 10 or more miles (16+ km)
Ceiling: at least 12,000 feet AGL
Clouds: scattered clouds at 9500 feet AGL
Present Weather: no significant weather observed at this time
KTPA 160953Z 11004KT 10SM SCT095 23/22 A3010 RMK AO2 SLP194 T02280217

Conditions at: KTPA observed 16 August 2018  08:53 UTC
Temperature: 22.8°C (73°F)
Dewpoint: 21.1°C (70°F) [RH = 90%]
Pressure (altimeter): 30.09 inches Hg (1019.0 mb)
[Sea-level pressure: 1019.0 mb]
Winds: calm
Visibility: 10 or more miles (16+ km)
Ceiling: at least 12,000 feet AGL
Clouds: scattered clouds at 8000 feet AGL
Present Weather: no significant weather observed at this time
KTPA 160853Z 00000KT 10SM SCT080 23/21 A3009 RMK AO2 SLP190 T02280211 56015

Conditions at: KTPA observed 16 August 2018  07:53 UTC
Temperature: 22.8°C (73°F)
Dewpoint: 21.1°C (70°F) [RH = 90%]
Pressure (altimeter): 30.10 inches Hg (1019.4 mb)
[Sea-level pressure: 1019.1 mb]
Winds: from the SE (130 degrees) at 6 MPH (5 knots; 2.6 m/s)
Visibility: 10 or more miles (16+ km)
Ceiling: at least 12,000 feet AGL
Clouds: sky clear below 12,000 feet AGL
Present Weather: no significant weather observed at this time
KTPA 160753Z 13005KT 10SM CLR 23/21 A3010 RMK AO2 SLP191 T02280211

Conditions at: KTPA observed 16 August 2018  06:53 UTC
Temperature: 22.8°C (73°F)
Dewpoint: 21.1°C (70°F) [RH = 90%]
Pressure (altimeter): 30.09 inches Hg (1019.0 mb)
[Sea-level pressure: 1019.0 mb]
Winds: from the ESE (110 degrees) at 5 MPH (4 knots; 2.1 m/s)
Visibility: 10 or more miles (16+ km)
Ceiling: at least 12,000 feet AGL
Clouds: sky clear below 12,000 feet AGL
Present Weather: no significant weather observed at this time
KTPA 160653Z 11004KT 10SM CLR 23/21 A3009 RMK AO2 SLP190 T02280211

Conditions at: KTPA observed 16 August 2018  05:53 UTC
Temperature: 23.3°C (74°F)
Dewpoint: 21.7°C (71°F) [RH = 91%]
Pressure (altimeter): 30.14 inches Hg (1020.7 mb)
[Sea-level pressure: 1020.5 mb]
Winds: from the E (80 degrees) at 5 MPH (4 knots; 2.1 m/s)
Visibility: 10 or more miles (16+ km)
Ceiling: at least 12,000 feet AGL
Clouds: sky clear below 12,000 feet AGL
Present Weather: no significant weather observed at this time
KTPA 160553Z 08004KT 10SM CLR 23/22 A3014 RMK AO2 LTG DSNT E SLP205 T02330217 10250 20233 50005

Conditions at: KTPA observed 16 August 2018  04:53 UTC
Temperature: 23.9°C (75°F)
Dewpoint: 22.2°C (72°F) [RH = 90%]
Pressure (altimeter): 30.14 inches Hg (1020.7 mb)
[Sea-level pressure: 1020.5 mb]
Winds: from the E (80 degrees) at 3 MPH (3 knots; 1.6 m/s)
Visibility: 10 or more miles (16+ km)
Ceiling: at least 12,000 feet AGL
Clouds: sky clear below 12,000 feet AGL
Present Weather: no significant weather observed at this time
KTPA 160453Z 08003KT 10SM CLR 24/22 A3014 RMK AO2 SLP205 T02390222 403330239

Conditions at: KTPA observed 16 August 2018  03:53 UTC
Temperature: 23.9°C (75°F)
Dewpoint: 21.7°C (71°F) [RH = 88%]
Pressure (altimeter): 30.14 inches Hg (1020.7 mb)
[Sea-level pressure: 1020.5 mb]
Winds: from the ESE (110 degrees) at 3 MPH (3 knots; 1.6 m/s)
Visibility: 10 or more miles (16+ km)
Ceiling: at least 12,000 feet AGL
Clouds: sky clear below 12,000 feet AGL
Present Weather: no significant weather observed at this time
KTPA 160353Z 11003KT 10SM CLR 24/22 A3014 RMK AO2 SLP205 T02390217

Conditions at: KTPA observed 16 August 2018  02:53 UTC
Temperature: 23.9°C (75°F)
Dewpoint: 21.7°C (71°F) [RH = 88%]
Pressure (altimeter): 30.12 inches Hg (1020.1 mb)
[Sea-level pressure: 1020.0 mb]
Winds: from the ENE (60 degrees) at 3 MPH (3 knots; 1.6 m/s)
Visibility: 10 or more miles (16+ km)
Ceiling: 20000 feet AGL
Clouds: few clouds at 3200 feet AGL
scattered clouds at 7000 feet AGL
scattered clouds at 14000 feet AGL
broken clouds at 20000 feet AGL
Present Weather: no significant weather observed at this time
KTPA 160253Z 06003KT 10SM FEW032 SCT070 SCT140 BKN200 24/22 A3012 RMK AO2 SLP200 OCNL LTGIC DSNT SE CB DSNT SE T02390217 53011

Conditions at: KTPA observed 16 August 2018  01:53 UTC
Temperature: 23.9°C (75°F)
Dewpoint: 21.1°C (70°F) [RH = 84%]
Pressure (altimeter): 30.11 inches Hg (1019.7 mb)
[Sea-level pressure: 1019.5 mb]
Winds: from the NE (40 degrees) at 7 MPH (6 knots; 3.1 m/s)
Visibility: 10 or more miles (16+ km)
Ceiling: 25000 feet AGL
Clouds: few clouds at 3200 feet AGL
scattered clouds at 10000 feet AGL
scattered clouds at 16000 feet AGL
broken clouds at 25000 feet AGL
Present Weather: no significant weather observed at this time
KTPA 160153Z 04006KT 10SM FEW032 SCT100 SCT160 BKN250 24/21 A3011 RMK AO2 SLP195 T02390211

Conditions at: KTPA observed 16 August 2018  00:53 UTC
Temperature: 23.9°C (75°F)
Dewpoint: 21.7°C (71°F) [RH = 88%]
Pressure (altimeter): 30.10 inches Hg (1019.4 mb)
[Sea-level pressure: 1019.3 mb]
Winds: from the NE (40 degrees) at 7 MPH (6 knots; 3.1 m/s)
Visibility: 10 or more miles (16+ km)
Ceiling: 16000 feet AGL
Clouds: few clouds at 3000 feet AGL
scattered clouds at 9000 feet AGL
broken clouds at 16000 feet AGL
broken clouds at 25000 feet AGL
Present Weather: no significant weather observed at this time
KTPA 160053Z 04006KT 10SM FEW030 SCT090 BKN160 BKN250 24/22 A3010 RMK AO2 SLP193 T02390217

Conditions at: KTPA observed 15 August 2018  23:53 UTC
Temperature: 25.0°C (77°F)
Dewpoint: 21.1°C (70°F) [RH = 79%]
Pressure (altimeter): 30.09 inches Hg (1019.0 mb)
[Sea-level pressure: 1018.9 mb]
Winds: from the NNE (30 degrees) at 6 MPH (5 knots; 2.6 m/s)
Visibility: 10 or more miles (16+ km)
Ceiling: 16000 feet AGL
Clouds: few clouds at 3000 feet AGL
scattered clouds at 9000 feet AGL
broken clouds at 16000 feet AGL
broken clouds at 25000 feet AGL
Present Weather: no significant weather observed at this time
KTPA 152353Z 03005KT 10SM FEW030 SCT090 BKN160 BKN250 25/21 A3009 RMK AO2 SLP189 CB DSNT N AND E AND SE 60000 T02500211 10333 20250 53009

Conditions at: KTPA observed 15 August 2018  22:53 UTC
Temperature: 25.0°C (77°F)
Dewpoint: 21.7°C (71°F) [RH = 82%]
Pressure (altimeter): 30.08 inches Hg (1018.7 mb)
[Sea-level pressure: 1018.4 mb]
Winds: calm
Visibility: 10 or more miles (16+ km)
Ceiling: 14000 feet AGL
Clouds: few clouds at 2800 feet AGL
scattered clouds at 4000 feet AGL
broken clouds at 14000 feet AGL
broken clouds at 19000 feet AGL
Present Weather: no significant weather observed at this time
KTPA 152253Z 00000KT 10SM FEW028 SCT040 BKN140 BKN190 25/22 A3008 RMK AO2 SLP184 CB DSNT N AND SE T02500217

Conditions at: KTPA observed 15 August 2018  22:32 UTC
Temperature: 25.6°C (78°F)
Dewpoint: 21.7°C (71°F) [RH = 79%]
Pressure (altimeter): 30.08 inches Hg (1018.7 mb)
Winds: from the W (260 degrees) at 8 MPH (7 knots; 3.6 m/s)
Visibility: 10 or more miles (16+ km)
Ceiling: 10000 feet AGL
Clouds: scattered clouds at 4500 feet AGL
broken clouds at 10000 feet AGL
broken clouds at 22000 feet AGL
Present Weather: no significant weather observed at this time
KTPA 152232Z 26007KT 10SM SCT045 BKN100 BKN220 26/22 A3008 RMK AO2 LTG DSNT ALQDS CB DSNT SW-NW TCU DSNT E-S AND SW-W T02560217

Conditions at: KTPA observed 15 August 2018  22:13 UTC
Temperature: 25.6°C (78°F)
Dewpoint: 22.2°C (72°F) [RH = 82%]
Pressure (altimeter): 30.08 inches Hg (1018.7 mb)
Winds: from the SSW (200 degrees) at 6 MPH (5 knots; 2.6 m/s)
Visibility: 10 or more miles (16+ km)
Ceiling: 10000 feet AGL
Clouds: scattered clouds at 4500 feet AGL
broken clouds at 10000 feet AGL
broken clouds at 22000 feet AGL
Present Weather: VCTS  (thunderstorm in vicinity)
KTPA 152213Z 20005KT 10SM VCTS SCT045 BKN100 BKN220 26/22 A3008 RMK AO2 LTG DSNT W-NE CB DSNT W-NE TCU DSNT E-S T02560222

Conditions at: KTPA observed 15 August 2018  21:53 UTC
Temperature: 26.1°C (79°F)
Dewpoint: 22.2°C (72°F) [RH = 79%]
Pressure (altimeter): 30.07 inches Hg (1018.4 mb)
[Sea-level pressure: 1018.2 mb]
Winds: from the S (190 degrees) at 8 MPH (7 knots; 3.6 m/s)
Visibility: 10 or more miles (16+ km)
Ceiling: 6000 feet AGL
Clouds: scattered clouds at 4000 feet AGL
broken clouds at 6000 feet AGL
broken clouds at 10000 feet AGL
broken clouds at 25000 feet AGL
Present Weather: TS  (thunderstorm)
KTPA 152153Z 19007KT 10SM TS SCT040CB BKN060 BKN100 BKN250 26/22 A3007 RMK AO2 LTG DSNT ALQDS RAE2055 TSB22 SLP182 OCNL LTGIC E AND SW-N TS E AND SW-NW MOV NW P0000 T02610222

Conditions at: KTPA observed 15 August 2018  21:23 UTC
Temperature: 26.7°C (80°F)
Dewpoint: 20.0°C (68°F) [RH = 67%]
Pressure (altimeter): 30.06 inches Hg (1018.0 mb)
Winds: from the E (80 degrees) at 5 MPH (4 knots; 2.1 m/s)
Visibility: 10 or more miles (16+ km)
Ceiling: 6500 feet AGL
Clouds: scattered clouds at 4000 feet AGL
broken clouds at 6500 feet AGL
broken clouds at 10000 feet AGL
Present Weather: TS  (thunderstorm)
KTPA 152123Z 08004KT 10SM TS SCT040CB BKN065 BKN100 27/20 A3006 RMK AO2 LTG DSNT ALQDS RAE2055 TSB22 OCNL LTGIC ALQDS TS ALQDS MOV NW P0000 T02670200

Conditions at: KTPA observed 15 August 2018  20:53 UTC
Temperature: 26.7°C (80°F)
Dewpoint: 20.6°C (69°F) [RH = 69%]
Pressure (altimeter): 30.06 inches Hg (1018.0 mb)
[Sea-level pressure: 1018.0 mb]
Winds: variable direction winds at 3 MPH (3 knots; 1.6 m/s)
Visibility: 10 or more miles (16+ km)
Ceiling: 9000 feet AGL
Clouds: scattered clouds at 4200 feet AGL
broken clouds at 9000 feet AGL
broken clouds at 20000 feet AGL
Present Weather: VCTS -RA  (thunderstorm in vicinity, light rain)
KTPA 152053Z VRB03KT 10SM VCTS -RA SCT042CB BKN090 BKN200 27/21 A3006 RMK AO2 LTG DSNT ALQDS RAB36 TSE11 SLP180 CB N-E AND SE AND SW-W MOV N TCU ALQDS P0000 60000 T02670206 56013

Conditions at: KTPA observed 15 August 2018  20:17 UTC
Temperature: 32.8°C (91°F)
Dewpoint: 21.1°C (70°F) [RH = 50%]
Pressure (altimeter): 30.06 inches Hg (1018.0 mb)
Winds: from the SW (230 degrees) at 8 MPH (7 knots; 3.6 m/s)
Visibility: 10 or more miles (16+ km)
Ceiling: at least 12,000 feet AGL
Clouds: scattered clouds at 4500 feet AGL
scattered clouds at 10000 feet AGL
scattered clouds at 25000 feet AGL
Present Weather: VCTS  (thunderstorm in vicinity)
KTPA 152017Z 23007KT 10SM VCTS SCT045CB SCT100 SCT250 33/21 A3006 RMK AO2 LTG DSNT NE-S TSE11 CB NE-SW MOV N TCU ALQDS VCSH NE-E AND S-SW T03280211

Conditions at: KTPA observed 15 August 2018  19:53 UTC
Temperature: 33.3°C (92°F)
Dewpoint: 21.7°C (71°F) [RH = 51%]
Pressure (altimeter): 30.07 inches Hg (1018.4 mb)
[Sea-level pressure: 1018.0 mb]
Winds: from the WSW (240 degrees) at 9 MPH (8 knots; 4.2 m/s)
Visibility: 10 or more miles (16+ km)
Ceiling: at least 12,000 feet AGL
Clouds: scattered clouds at 4500 feet AGL
scattered clouds at 25000 feet AGL
Present Weather: no significant weather observed at this time
KTPA 151953Z 24008KT 10SM SCT045TCU SCT250 33/22 A3007 RMK AO2 SLP180 CB DSNT E AND SE-S TCU NE-S AND DSNT SW SHRA DSNT E AND SE-S T03330217